Somerset, Bermuda
Current Conditions -  °F | °C
As of 4:55 PM on Thursday 23 Oct 2014 (Local Time) from TXKF Reporting Station
Overcast Overcast  
Wind Chill: 75°   Ceiling: 8000
Heat Index: 75°   Visibility: 6mi
Dew Point: 70°   Wind: 10mph
Humidity: 83%   Direction: 250°WSW
Pressure: 29.83"   Gusts: NA
Location:  32.3°N, 64.87°W
Report Text: TXKF 231955Z 25009KT 9999 FEW008 SCT015 BKN080 OVC17024/21 Q1010 RMK WND EST
Loading
Personal Weather Stations






























Interactive Weather Map
Tropical Storm Tracking
New forecast layout! Learn more

10-Day Weather Forecast

Advertisements
Track Severe Weather on mobile